Time;durP1;ratioP1;P1;durP2;ratioP2;P2;SDS_P1;SDS_P2;PMS_P1;PMS_P2;Temp;Humidity;BMP_temperature;BMP_pressure;BME280_temperature;BME280_humidity;BME280_pressure;Samples;Min_cycle;Max_cycle;Signal;HPM_P1;HPM_P2
2023/02/27 00:01:39;;;;;;;9.93;3.60;;;0.50;99.90;;;;;;5040708;28;20446;-71
2023/02/27 00:04:05;;;;;;;11.80;4.40;;;0.50;99.90;;;;;;5039408;28;20022;-71
2023/02/27 00:06:30;;;;;;;9.23;4.00;;;0.50;99.90;;;;;;5040836;28;20059;-72
2023/02/27 00:08:56;;;;;;;14.10;3.75;;;0.50;99.90;;;;;;5038515;28;20147;-72
2023/02/27 00:11:21;;;;;;;8.77;3.80;;;0.40;99.90;;;;;;5040623;28;20032;-71
2023/02/27 00:13:48;;;;;;;8.30;3.72;;;0.40;99.90;;;;;;5041067;28;20040;-72
2023/02/27 00:16:13;;;;;;;10.45;3.45;;;0.40;99.90;;;;;;5040493;28;20398;-71
2023/02/27 00:18:39;;;;;;;7.88;3.30;;;0.40;99.90;;;;;;5038465;28;20084;-72
2023/02/27 00:21:04;;;;;;;13.15;4.35;;;0.30;99.90;;;;;;5040561;28;20033;-71
2023/02/27 00:23:30;;;;;;;10.05;3.75;;;0.30;99.90;;;;;;5038133;28;20032;-71
2023/02/27 00:25:56;;;;;;;8.77;3.42;;;0.30;99.90;;;;;;5038507;28;20051;-72
2023/02/27 00:28:22;;;;;;;9.98;3.63;;;0.30;99.90;;;;;;5039485;28;20072;-70
2023/02/27 00:30:49;;;;;;;8.63;3.33;;;0.30;99.90;;;;;;5038310;28;20081;-70
2023/02/27 00:33:14;;;;;;;14.18;3.53;;;0.30;99.90;;;;;;5038795;28;20026;-71
2023/02/27 00:35:40;;;;;;;10.32;3.60;;;0.20;99.90;;;;;;5039618;28;20045;-71
2023/02/27 00:38:05;;;;;;;13.70;3.63;;;0.20;99.90;;;;;;5040460;28;20025;-70
2023/02/27 00:40:34;;;;;;;15.45;4.00;;;0.20;99.90;;;;;;5040134;28;20030;-71
2023/02/27 00:43:00;;;;;;;10.90;3.95;;;0.20;99.90;;;;;;5039026;28;20028;-72
2023/02/27 00:45:26;;;;;;;11.60;3.53;;;0.20;99.90;;;;;;5040414;28;20025;-71
2023/02/27 00:47:52;;;;;;;10.38;3.50;;;0.20;99.90;;;;;;5038601;28;20029;-72
2023/02/27 00:50:17;;;;;;;11.82;3.55;;;0.20;99.90;;;;;;5038288;28;20437;-72
2023/02/27 00:52:43;;;;;;;14.05;3.50;;;0.20;99.90;;;;;;5039934;28;20081;-73
2023/02/27 00:55:09;;;;;;;9.57;3.40;;;0.20;99.90;;;;;;5039935;28;20032;-71
2023/02/27 00:57:34;;;;;;;7.93;3.25;;;0.20;99.90;;;;;;5043709;28;20463;-72
2023/02/27 01:00:00;;;;;;;7.15;3.05;;;0.20;99.90;;;;;;5042970;28;20041;-72
2023/02/27 01:02:26;;;;;;;6.10;2.75;;;0.20;99.90;;;;;;5043632;28;20025;-72
2023/02/27 01:04:51;;;;;;;7.82;3.10;;;0.20;99.90;;;;;;5041449;28;20034;-73
2023/02/27 01:07:17;;;;;;;9.65;3.25;;;0.20;99.90;;;;;;5041334;28;20064;-72
2023/02/27 01:09:43;;;;;;;11.13;3.58;;;0.20;99.90;;;;;;5042271;28;20056;-69
2023/02/27 01:12:09;;;;;;;7.68;2.90;;;0.20;99.90;;;;;;5042369;28;20029;-71
2023/02/27 01:14:35;;;;;;;13.05;3.20;;;0.30;99.90;;;;;;5043289;28;20056;-71
2023/02/27 01:17:00;;;;;;;6.95;2.67;;;0.20;99.90;;;;;;5042460;28;20085;-71
2023/02/27 01:19:26;;;;;;;8.95;2.72;;;0.20;99.90;;;;;;5042381;28;20025;-72
2023/02/27 01:21:52;;;;;;;6.00;2.88;;;0.20;99.90;;;;;;5043613;28;20053;-70
2023/02/27 01:24:18;;;;;;;8.43;3.15;;;0.20;99.90;;;;;;5043278;28;20037;-71
2023/02/27 01:26:44;;;;;;;7.43;3.05;;;0.20;99.90;;;;;;5042095;28;20049;-71
2023/02/27 01:29:10;;;;;;;6.65;2.95;;;0.20;99.90;;;;;;5043508;28;20063;-71
2023/02/27 01:31:36;;;;;;;15.90;3.65;;;0.10;99.90;;;;;;5042956;28;20025;-72
2023/02/27 01:34:01;;;;;;;10.10;3.15;;;0.10;99.90;;;;;;5042198;28;20044;-71
2023/02/27 01:36:27;;;;;;;7.03;3.55;;;0.10;99.90;;;;;;5041981;28;20029;-73
2023/02/27 01:38:52;;;;;;;10.70;3.20;;;0.10;99.90;;;;;;5042097;28;20018;-71
2023/02/27 01:41:18;;;;;;;10.45;3.50;;;0.10;99.90;;;;;;5041055;28;20021;-71
2023/02/27 01:43:53;;;;;;;8.00;2.88;;;0.00;99.90;;;;;;5041276;28;20022;-71
2023/02/27 01:46:18;;;;;;;9.38;3.20;;;0.10;99.90;;;;;;5043287;28;20021;-70
2023/02/27 01:48:44;;;;;;;7.43;3.25;;;0.10;99.90;;;;;;5043354;28;20104;-71
2023/02/27 01:51:18;;;;;;;10.70;3.22;;;0.10;99.90;;;;;;5041221;28;20036;-70
2023/02/27 01:53:51;;;;;;;11.10;3.40;;;0.10;99.90;;;;;;5042324;28;20117;-71
2023/02/27 01:56:18;;;;;;;12.90;3.17;;;0.10;99.90;;;;;;5042955;28;20112;-72
2023/02/27 01:58:46;;;;;;;11.45;3.95;;;0.10;99.90;;;;;;5043024;28;20097;-71
2023/02/27 02:01:12;;;;;;;10.50;3.55;;;0.10;99.90;;;;;;5041093;28;20072;-71
2023/02/27 02:04:08;;;;;;;10.10;3.03;;;0.10;99.90;;;;;;5043046;28;20605;-72
2023/02/27 02:06:37;;;;;;;12.75;3.80;;;0.10;99.90;;;;;;5042285;28;20048;-71
2023/02/27 02:09:03;;;;;;;7.45;3.55;;;0.00;99.90;;;;;;5041103;28;20055;-72
2023/02/27 02:11:28;;;;;;;9.85;3.58;;;0.00;99.90;;;;;;5042709;28;20017;-72
2023/02/27 02:14:01;;;;;;;9.82;3.45;;;0.00;99.90;;;;;;5040725;28;20604;-73
2023/02/27 02:16:58;;;;;;;9.75;3.80;;;0.00;99.90;;;;;;5042606;28;20017;-72
2023/02/27 02:19:51;;;;;;;9.13;3.10;;;0.00;99.90;;;;;;5042882;28;20474;-73
2023/02/27 02:22:54;;;;;;;9.18;3.63;;;0.00;99.90;;;;;;5040911;28;20113;-72
2023/02/27 02:25:39;;;;;;;8.75;3.42;;;0.00;99.90;;;;;;5038784;28;20033;-72
2023/02/27 02:28:12;;;;;;;;;;;0.00;99.90;;;;;;5041217;28;20051;-72
2023/02/27 02:31:02;;;;;;;11.00;3.88;;;-0.10;99.90;;;;;;5041102;28;19909;-72
2023/02/27 02:33:54;;;;;;;6.97;3.60;;;-0.10;99.90;;;;;;5040553;28;20056;-73
2023/02/27 02:36:46;;;;;;;10.48;3.78;;;-0.10;99.90;;;;;;5042865;28;20042;-72
2023/02/27 02:39:40;;;;;;;9.82;3.53;;;-0.10;99.90;;;;;;5043049;28;20065;-73
2023/02/27 02:42:19;;;;;;;8.88;3.97;;;0.00;99.90;;;;;;5049239;28;20037;-72
2023/02/27 02:45:16;;;;;;;12.27;4.03;;;-0.10;99.90;;;;;;5042479;28;20022;-73
2023/02/27 02:47:41;;;;;;;12.95;3.97;;;-0.10;99.90;;;;;;5041428;28;20022;-71
2023/02/27 02:50:19;;;;;;;11.70;4.50;;;-0.10;99.90;;;;;;5041165;28;20029;-70
2023/02/27 02:53:20;;;;;;;12.35;4.70;;;-0.10;99.90;;;;;;5042659;28;20120;-70
2023/02/27 02:56:03;;;;;;;12.88;5.28;;;-0.10;99.90;;;;;;5042412;28;20041;-72
2023/02/27 02:58:36;;;;;;;11.45;5.15;;;-0.20;99.90;;;;;;5040908;28;20029;-71
2023/02/27 03:01:15;;;;;;;14.20;5.25;;;-0.20;99.90;;;;;;5040842;28;20028;-71
2023/02/27 03:03:50;;;;;;;14.38;5.63;;;-0.20;99.90;;;;;;5041065;28;20029;-71
2023/02/27 03:06:26;;;;;;;14.95;5.80;;;-0.20;99.90;;;;;;5040988;28;20066;-71
2023/02/27 03:09:15;;;;;;;14.75;6.00;;;-0.20;99.90;;;;;;5042316;28;20029;-72
2023/02/27 03:11:44;;;;;;;14.05;6.30;;;-0.20;99.90;;;;;;5040745;28;20136;-71
2023/02/27 03:14:29;;;;;;;16.98;5.95;;;-0.20;99.90;;;;;;5041986;28;20037;-72
2023/02/27 03:16:59;;;;;;;14.63;6.88;;;-0.20;99.90;;;;;;5043003;28;20038;-71
2023/02/27 03:19:32;;;;;;;15.45;6.75;;;-0.20;99.90;;;;;;5040984;28;20171;-71
2023/02/27 03:22:09;;;;;;;14.90;6.80;;;-0.20;99.90;;;;;;5042154;28;20080;-70
2023/02/27 03:24:44;;;;;;;14.98;7.10;;;-0.20;99.90;;;;;;5041925;28;20086;-73
2023/02/27 03:27:10;;;;;;;15.27;7.13;;;-0.20;99.90;;;;;;5039767;28;20095;-71
2023/02/27 03:29:53;;;;;;;18.55;7.57;;;-0.20;99.90;;;;;;5042213;28;20386;-72
2023/02/27 03:32:58;;;;;;;16.95;7.30;;;-0.20;99.90;;;;;;5042165;28;20057;-71
2023/02/27 03:35:35;;;;;;;16.90;7.35;;;-0.20;99.90;;;;;;5041337;28;20030;-73
2023/02/27 03:38:28;;;;;;;21.95;7.65;;;-0.20;99.90;;;;;;5041680;28;20029;-73
2023/02/27 03:41:24;;;;;;;15.43;7.40;;;-0.20;99.90;;;;;;5040060;28;20016;-73
2023/02/27 03:44:13;;;;;;;14.65;7.18;;;-0.20;99.90;;;;;;5041888;28;20052;-72
2023/02/27 03:46:39;;;;;;;14.73;7.07;;;-0.20;99.90;;;;;;5040687;28;20025;-71
2023/02/27 03:49:05;;;;;;;18.67;7.43;;;-0.20;99.90;;;;;;5041774;28;20051;-71
2023/02/27 03:51:32;;;;;;;18.92;7.65;;;-0.20;99.90;;;;;;5041789;28;20028;-72
2023/02/27 03:54:19;;;;;;;18.20;7.15;;;-0.20;99.90;;;;;;5041820;28;20315;-71
2023/02/27 03:57:01;;;;;;;17.30;7.40;;;-0.20;99.90;;;;;;5041051;28;20022;-72
2023/02/27 03:59:28;;;;;;;15.82;7.30;;;-0.20;99.90;;;;;;5041611;28;20084;-72
2023/02/27 04:01:56;;;;;;;17.35;7.32;;;-0.30;99.90;;;;;;5040432;28;20032;-72
2023/02/27 04:04:23;;;;;;;15.32;7.22;;;-0.30;99.90;;;;;;5041518;28;20160;-71
2023/02/27 04:07:21;;;;;;;15.93;7.30;;;-0.30;99.90;;;;;;5039764;28;20213;-73
2023/02/27 04:10:12;;;;;;;17.20;7.38;;;-0.40;99.90;;;;;;5040161;28;20028;-72
2023/02/27 04:12:46;;;;;;;19.88;7.63;;;-0.40;99.90;;;;;;5039852;28;20036;-71
2023/02/27 04:15:16;;;;;;;14.20;7.45;;;-0.40;99.90;;;;;;5041266;28;20042;-72
2023/02/27 04:18:19;;;;;;;19.60;7.68;;;-0.40;99.90;;;;;;5041689;28;20045;-72
2023/02/27 04:21:08;;;;;;;19.80;8.05;;;-0.40;99.90;;;;;;5040726;28;20025;-71
2023/02/27 04:23:40;;;;;;;19.02;8.30;;;-0.40;99.90;;;;;;5040474;28;20041;-71
2023/02/27 04:26:09;;;;;;;15.07;7.93;;;-0.40;99.90;;;;;;5040886;28;20159;-72
2023/02/27 04:28:57;;;;;;;21.67;8.23;;;-0.30;99.90;;;;;;5041250;28;20053;-70
2023/02/27 04:31:46;;;;;;;20.45;7.70;;;-0.30;99.90;;;;;;5040300;28;20497;-70
2023/02/27 04:34:21;;;;;;;19.50;8.40;;;-0.30;99.90;;;;;;5040731;28;20037;-72
2023/02/27 04:37:00;;;;;;;19.45;8.43;;;-0.30;99.90;;;;;;5039752;28;20030;-71
2023/02/27 04:39:32;;;;;;;25.02;8.95;;;-0.30;99.90;;;;;;5039493;28;20049;-72
2023/02/27 04:42:02;;;;;;;21.38;9.00;;;-0.30;99.90;;;;;;5040869;28;20033;-71
2023/02/27 04:44:30;;;;;;;19.55;8.48;;;-0.30;99.90;;;;;;5041195;28;20112;-72
2023/02/27 04:46:58;;;;;;;15.98;8.48;;;-0.30;99.90;;;;;;5041140;28;20041;-72
2023/02/27 04:49:59;;;;;;;22.40;9.35;;;-0.30;99.90;;;;;;5039433;28;20048;-71
2023/02/27 04:52:37;;;;;;;20.00;8.50;;;-0.30;99.90;;;;;;5028322;28;20101;-71
2023/02/27 04:55:22;;;;;;;22.90;9.15;;;-0.30;99.90;;;;;;5040678;28;20098;-72
2023/02/27 04:58:09;;;;;;;25.73;9.32;;;-0.20;99.90;;;;;;5039573;28;20188;-71
2023/02/27 05:00:36;;;;;;;25.55;9.52;;;-0.20;99.90;;;;;;5040761;28;20018;-72
2023/02/27 05:03:13;;;;;;;21.83;8.80;;;-0.20;99.90;;;;;;5040290;28;20409;-71
2023/02/27 05:05:42;;;;;;;26.60;9.93;;;-0.20;99.90;;;;;;5039210;28;20053;-73
2023/02/27 05:08:41;;;;;;;20.88;9.35;;;-0.20;99.90;;;;;;5040219;28;20037;-72
2023/02/27 05:11:16;;;;;;;27.50;9.57;;;-0.30;99.90;;;;;;5039234;28;20029;-71
2023/02/27 05:13:53;;;;;;;20.70;9.63;;;-0.20;99.90;;;;;;5038674;28;20518;-72
2023/02/27 05:16:25;;;;;;;19.25;9.63;;;-0.30;99.90;;;;;;5039215;28;20068;-72
2023/02/27 05:18:53;;;;;;;21.35;9.77;;;-0.30;99.90;;;;;;5038610;28;20053;-70
2023/02/27 05:21:23;;;;;;;22.60;9.80;;;-0.30;99.90;;;;;;5040456;28;20029;-72
2023/02/27 05:24:18;;;;;;;22.00;10.02;;;-0.30;99.90;;;;;;5039290;28;20037;-72
2023/02/27 05:27:08;;;;;;;20.17;9.60;;;-0.30;99.90;;;;;;5040868;28;20056;-72
2023/02/27 05:29:47;;;;;;;23.77;10.65;;;-0.30;99.90;;;;;;5039353;28;20018;-72
2023/02/27 05:32:25;;;;;;;25.10;10.25;;;-0.30;99.90;;;;;;5040228;28;20041;-73
2023/02/27 05:35:00;;;;;;;27.33;9.95;;;-0.30;99.90;;;;;;5040867;28;20041;-73
2023/02/27 05:37:43;;;;;;;18.95;9.25;;;-0.30;99.90;;;;;;5039096;28;20056;-74
2023/02/27 05:40:12;;;;;;;19.70;9.75;;;-0.30;99.90;;;;;;5040464;28;20026;-71
2023/02/27 05:42:44;;;;;;;22.65;10.38;;;-0.30;99.90;;;;;;5041274;28;20060;-72
2023/02/27 05:45:16;;;;;;;23.65;9.52;;;-0.30;99.90;;;;;;5044383;28;20489;-72
2023/02/27 05:47:47;;;;;;;21.13;9.73;;;-0.30;99.90;;;;;;5042551;28;20033;-72
2023/02/27 05:50:22;;;;;;;24.05;9.65;;;-0.40;99.90;;;;;;5042666;28;20494;-72
2023/02/27 05:52:50;;;;;;;25.55;9.68;;;-0.40;99.90;;;;;;5043838;28;20056;-71
2023/02/27 05:55:40;;;;;;;48.58;19.73;;;-0.40;99.90;;;;;;5042237;28;20076;-72
2023/02/27 05:58:11;;;;;;;48.55;20.50;;;-0.50;99.90;;;;;;5042611;28;20078;-73
2023/02/27 06:00:42;;;;;;;31.63;14.80;;;-0.40;99.90;;;;;;5041740;28;20029;-72
2023/02/27 06:03:08;;;;;;;30.10;13.40;;;-0.40;99.90;;;;;;5041827;28;20030;-72
2023/02/27 06:05:36;;;;;;;32.90;16.50;;;-0.40;99.90;;;;;;5043443;28;20032;-73
2023/02/27 06:08:02;;;;;;;32.47;15.75;;;-0.50;99.90;;;;;;5043555;28;20032;-73
2023/02/27 06:10:27;;;;;;;29.15;12.75;;;-0.50;99.90;;;;;;5043832;28;20029;-75
2023/02/27 06:12:54;;;;;;;25.77;12.10;;;-0.50;99.90;;;;;;5042074;28;20076;-74
2023/02/27 06:15:19;;;;;;;26.10;11.68;;;-0.60;99.90;;;;;;5043796;28;20029;-74
2023/02/27 06:17:45;;;;;;;24.95;11.25;;;-0.50;99.90;;;;;;5042120;28;20029;-72
2023/02/27 06:20:11;;;;;;;33.72;12.80;;;-0.60;99.90;;;;;;5043709;28;20025;-73
2023/02/27 06:22:37;;;;;;;30.13;13.63;;;-0.50;99.90;;;;;;5040304;28;20025;-73
2023/02/27 06:25:02;;;;;;;26.27;13.85;;;-0.50;99.90;;;;;;5039857;28;20029;-74
2023/02/27 06:27:28;;;;;;;31.33;13.85;;;-0.50;99.90;;;;;;5041354;28;20083;-72
2023/02/27 06:29:54;;;;;;;32.60;13.60;;;-0.50;99.90;;;;;;5039363;28;20091;-73
2023/02/27 06:32:20;;;;;;;28.02;14.40;;;-0.50;99.90;;;;;;5042084;28;20033;-71
2023/02/27 06:34:46;;;;;;;30.05;13.13;;;-0.50;99.90;;;;;;5058146;28;20116;-70
2023/02/27 06:37:12;;;;;;;24.20;10.82;;;-0.50;99.90;;;;;;5041733;28;20065;-70
2023/02/27 06:39:37;;;;;;;25.90;10.30;;;-0.50;99.90;;;;;;5041281;28;20029;-72
2023/02/27 06:42:03;;;;;;;28.42;10.55;;;-0.50;99.90;;;;;;5040418;28;20036;-72
2023/02/27 06:44:28;;;;;;;29.40;10.93;;;-0.50;99.90;;;;;;5042669;28;20059;-71
2023/02/27 06:46:54;;;;;;;34.90;10.10;;;-0.50;99.90;;;;;;5035689;28;20048;-72
2023/02/27 06:49:20;;;;;;;24.98;10.90;;;-0.50;99.90;;;;;;5041424;28;20029;-71
2023/02/27 06:51:46;;;;;;;24.45;12.18;;;-0.50;99.90;;;;;;5040991;28;20033;-71
2023/02/27 06:54:12;;;;;;;31.63;10.88;;;-0.40;99.90;;;;;;5037960;28;20089;-70
2023/02/27 06:56:38;;;;;;;25.80;11.30;;;-0.40;99.90;;;;;;5041162;28;20028;-72
2023/02/27 06:59:03;;;;;;;21.88;10.57;;;-0.40;99.90;;;;;;5041887;28;20026;-70
2023/02/27 07:01:29;;;;;;;24.85;13.57;;;-0.40;99.90;;;;;;5042140;28;20033;-72
2023/02/27 07:03:56;;;;;;;35.35;15.75;;;-0.30;99.90;;;;;;5041487;28;20014;-71
2023/02/27 07:06:22;;;;;;;35.85;16.05;;;-0.20;99.90;;;;;;5042561;28;20033;-71
2023/02/27 07:08:48;;;;;;;29.20;13.73;;;-0.10;99.90;;;;;;5041981;28;20077;-71
2023/02/27 07:11:13;;;;;;;26.27;13.20;;;0.00;99.90;;;;;;5041076;28;20033;-71
2023/02/27 07:13:39;;;;;;;27.27;12.32;;;0.10;99.90;;;;;;5040857;28;20481;-72
2023/02/27 07:16:05;;;;;;;35.08;12.27;;;0.20;99.90;;;;;;5041870;28;20045;-70
2023/02/27 07:18:31;;;;;;;25.63;10.35;;;0.30;99.90;;;;;;5042510;28;20112;-71
2023/02/27 07:20:56;;;;;;;26.67;11.18;;;0.40;99.90;;;;;;5041763;28;20112;-71
2023/02/27 07:23:22;;;;;;;22.73;10.27;;;0.50;99.90;;;;;;5042679;28;20029;-71
2023/02/27 07:25:48;;;;;;;24.63;9.40;;;0.50;99.90;;;;;;5042138;28;20573;-70
2023/02/27 07:28:14;;;;;;;30.85;12.07;;;0.60;99.90;;;;;;5040533;28;20448;-70
2023/02/27 07:30:40;;;;;;;22.73;10.32;;;0.70;99.90;;;;;;5040238;28;20025;-70
2023/02/27 07:33:06;;;;;;;26.60;11.13;;;0.80;99.90;;;;;;5041954;28;20028;-71
2023/02/27 07:35:31;;;;;;;26.20;11.20;;;0.90;99.90;;;;;;5038472;28;20068;-70
2023/02/27 07:37:57;;;;;;;23.13;9.63;;;1.00;99.90;;;;;;5037107;28;20026;-72
2023/02/27 07:40:24;;;;;;;34.55;13.43;;;1.20;99.90;;;;;;5039492;28;20025;-70
2023/02/27 07:42:50;;;;;;;29.02;11.30;;;1.40;99.90;;;;;;5040256;28;20033;-69
2023/02/27 07:45:17;;;;;;;22.48;7.88;;;1.80;99.90;;;;;;5035767;28;20064;-68
2023/02/27 07:47:43;;;;;;;18.90;7.78;;;2.00;99.90;;;;;;5040047;28;20060;-69
2023/02/27 07:50:12;;;;;;;22.23;7.07;;;2.30;99.90;;;;;;5041822;28;20029;-70
2023/02/27 07:52:39;;;;;;;16.02;6.72;;;2.50;99.90;;;;;;5042226;28;20026;-69
2023/02/27 07:55:06;;;;;;;12.73;5.57;;;2.80;99.90;;;;;;5039844;28;20509;-70
2023/02/27 07:57:32;;;;;;;19.75;6.32;;;3.00;99.90;;;;;;5041393;28;20030;-69
2023/02/27 07:59:58;;;;;;;15.75;6.03;;;3.20;99.90;;;;;;5040864;28;20029;-70
2023/02/27 08:02:23;;;;;;;22.25;5.40;;;3.40;99.90;;;;;;5042012;28;20029;-69
2023/02/27 08:04:50;;;;;;;15.93;6.30;;;3.60;99.90;;;;;;5042039;28;20560;-70
2023/02/27 08:07:16;;;;;;;18.50;6.45;;;3.80;99.90;;;;;;5040627;28;20045;-69
2023/02/27 08:09:41;;;;;;;16.13;5.70;;;4.10;99.90;;;;;;5041653;28;20441;-69
2023/02/27 08:12:07;;;;;;;15.82;5.65;;;4.20;99.90;;;;;;5042001;28;20014;-70
2023/02/27 08:14:32;;;;;;;16.60;5.63;;;4.40;99.90;;;;;;5041778;28;20049;-71
2023/02/27 08:16:59;;;;;;;14.02;5.13;;;4.50;99.90;;;;;;5041523;28;20036;-70
2023/02/27 08:19:25;;;;;;;14.65;5.13;;;4.70;99.90;;;;;;5042448;28;20165;-69
2023/02/27 08:21:51;;;;;;;13.73;4.90;;;4.80;99.90;;;;;;5042230;28;20387;-69
2023/02/27 08:24:16;;;;;;;11.52;4.90;;;5.00;99.90;;;;;;5041927;28;20025;-70
2023/02/27 08:26:42;;;;;;;9.15;4.38;;;5.10;99.90;;;;;;5039764;28;20126;-70
2023/02/27 08:29:08;;;;;;;13.63;4.90;;;5.30;99.90;;;;;;5040932;28;20041;-71
2023/02/27 08:31:34;;;;;;;12.10;4.75;;;5.50;99.90;;;;;;5041153;28;20041;-69
2023/02/27 08:33:59;;;;;;;12.93;4.97;;;5.60;99.90;;;;;;5040828;28;20037;-71
2023/02/27 08:36:25;;;;;;;15.55;5.18;;;5.70;99.90;;;;;;5039309;28;20608;-70
2023/02/27 08:38:51;;;;;;;12.23;4.63;;;5.90;99.90;;;;;;5036665;28;20494;-69
2023/02/27 08:41:17;;;;;;;13.52;4.80;;;6.10;99.90;;;;;;5037475;28;20035;-72
2023/02/27 08:43:43;;;;;;;16.30;5.55;;;6.20;99.90;;;;;;5038327;28;20025;-70
2023/02/27 08:46:08;;;;;;;14.52;4.15;;;6.40;99.90;;;;;;5040457;28;20060;-70
2023/02/27 08:48:34;;;;;;;14.07;3.95;;;6.50;99.90;;;;;;5039889;28;20036;-70
2023/02/27 08:50:59;;;;;;;14.07;3.88;;;6.60;99.90;;;;;;5040244;28;20021;-71
2023/02/27 08:53:25;;;;;;;14.48;4.43;;;6.60;99.90;;;;;;5038670;28;20017;-70
2023/02/27 08:55:52;;;;;;;13.65;4.10;;;6.70;99.90;;;;;;5038847;28;20033;-69
2023/02/27 08:58:17;;;;;;;12.27;4.18;;;6.80;99.90;;;;;;5038060;28;20613;-70
2023/02/27 09:00:43;;;;;;;14.15;4.78;;;7.00;99.90;;;;;;5039664;28;20033;-70
2023/02/27 09:03:09;;;;;;;11.57;3.60;;;7.10;99.90;;;;;;5040167;28;20073;-70
2023/02/27 09:05:36;;;;;;;10.90;3.63;;;7.10;99.90;;;;;;5040852;28;20052;-69
2023/02/27 09:08:03;;;;;;;14.80;3.70;;;7.00;99.90;;;;;;5040637;28;20048;-71
2023/02/27 09:10:31;;;;;;;10.93;3.78;;;7.10;99.90;;;;;;5040170;28;20037;-71
2023/02/27 09:12:57;;;;;;;11.77;3.70;;;7.20;99.90;;;;;;5041332;28;20077;-69
2023/02/27 09:15:23;;;;;;;11.38;3.83;;;7.50;99.90;;;;;;5041376;28;20077;-70
2023/02/27 09:17:48;;;;;;;11.15;4.05;;;7.60;99.90;;;;;;5040866;28;20112;-70
2023/02/27 09:20:14;;;;;;;11.73;4.03;;;7.60;99.90;;;;;;5044490;28;20061;-70
2023/02/27 09:22:40;;;;;;;9.70;3.58;;;7.60;99.90;;;;;;5044091;28;20025;-70
2023/02/27 09:25:06;;;;;;;10.02;3.72;;;7.60;99.90;;;;;;5044817;28;20029;-70
2023/02/27 09:27:32;;;;;;;9.65;3.35;;;7.60;99.90;;;;;;5044314;28;20049;-70
2023/02/27 09:29:58;;;;;;;9.35;3.00;;;7.60;99.90;;;;;;5043238;28;20071;-71
2023/02/27 09:32:25;;;;;;;7.63;2.90;;;7.60;99.90;;;;;;5043555;28;20025;-71
2023/02/27 09:34:50;;;;;;;11.43;3.10;;;7.70;99.90;;;;;;5044347;28;20053;-70
2023/02/27 09:37:18;;;;;;;5.03;2.58;;;7.80;99.90;;;;;;5044109;28;20056;-70
2023/02/27 09:39:43;;;;;;;10.18;2.92;;;7.80;99.90;;;;;;5043628;28;20036;-70
2023/02/27 09:42:18;;;;;;;5.97;2.65;;;7.90;99.90;;;;;;5044050;28;20077;-69
2023/02/27 09:44:50;;;;;;;11.32;2.67;;;7.90;99.90;;;;;;5044716;28;20900;-71
2023/02/27 09:47:32;;;;;;;9.68;2.50;;;7.80;99.90;;;;;;5044667;28;20034;-71
2023/02/27 09:50:07;;;;;;;6.63;2.60;;;7.80;99.90;;;;;;5044798;28;20112;-70
2023/02/27 09:52:36;;;;;;;10.15;3.47;;;7.90;99.90;;;;;;5042985;28;20057;-70
2023/02/27 09:55:05;;;;;;;7.47;3.40;;;8.10;99.90;;;;;;5044176;28;20044;-69
2023/02/27 09:57:55;;;;;;;11.10;4.10;;;8.10;99.90;;;;;;5042920;28;20025;-69
2023/02/27 10:00:44;;;;;;;10.52;3.83;;;8.20;99.90;;;;;;5043476;28;20033;-69
2023/02/27 10:03:34;;;;;;;13.38;3.65;;;8.20;99.90;;;;;;5043282;28;20056;-68
2023/02/27 10:06:16;;;;;;;17.30;4.05;;;8.30;99.90;;;;;;5050889;28;20033;-68
2023/02/27 10:08:58;;;;;;;13.48;4.53;;;8.40;99.90;;;;;;5039917;28;20029;-68
2023/02/27 10:11:44;;;;;;;11.65;3.42;;;8.70;99.90;;;;;;5040205;28;20095;-68
2023/02/27 10:14:14;;;;;;;5.63;2.92;;;9.00;99.90;;;;;;5039013;28;20034;-70
2023/02/27 10:16:41;;;;;;;17.75;3.47;;;9.30;99.90;;;;;;5038811;28;20026;-69
2023/02/27 10:19:14;;;;;;;12.23;3.83;;;9.50;99.90;;;;;;5041466;28;20036;-68
2023/02/27 10:21:44;;;;;;;10.02;3.10;;;9.60;99.90;;;;;;5043663;28;20022;-69
2023/02/27 10:24:30;;;;;;;8.77;2.58;;;9.70;99.90;;;;;;5040523;28;20055;-69
2023/02/27 10:26:58;;;;;;;10.23;3.05;;;9.90;99.90;;;;;;5039988;28;20033;-70
2023/02/27 10:29:27;;;;;;;7.88;2.55;;;10.10;99.90;;;;;;5040151;28;20111;-70
2023/02/27 10:32:17;;;;;;;10.02;2.90;;;10.10;99.90;;;;;;5042695;28;20097;-69
2023/02/27 10:34:47;;;;;;;9.98;3.17;;;10.00;99.90;;;;;;5043950;28;20050;-70
2023/02/27 10:37:15;;;;;;;10.00;3.22;;;9.80;99.90;;;;;;5042360;28;20021;-68
2023/02/27 10:39:53;;;;;;;10.30;3.35;;;9.80;99.90;;;;;;5042105;28;20106;-69
2023/02/27 10:42:20;;;;;;;10.70;3.53;;;9.90;99.90;;;;;;5041890;28;20022;-69
2023/02/27 10:44:52;;;;;;;9.88;3.38;;;10.10;99.90;;;;;;5042110;28;20703;-68
2023/02/27 10:47:21;;;;;;;11.13;3.40;;;10.20;99.90;;;;;;5041794;28;20419;-68
2023/02/27 10:49:47;;;;;;;9.13;3.30;;;10.40;99.90;;;;;;5042144;28;20047;-68
2023/02/27 10:52:14;;;;;;;13.35;3.45;;;10.50;99.90;;;;;;5042057;28;20022;-69
2023/02/27 10:54:41;;;;;;;7.43;3.17;;;10.70;99.90;;;;;;5040615;28;20097;-69
2023/02/27 10:57:18;;;;;;;8.43;2.83;;;10.90;99.90;;;;;;5041250;28;20033;-68
2023/02/27 10:59:51;;;;;;;10.13;3.08;;;10.80;99.90;;;;;;5042261;28;20589;-69
2023/02/27 11:02:37;;;;;;;9.65;3.00;;;10.90;99.90;;;;;;5042686;28;20029;-69
2023/02/27 11:05:05;;;;;;;7.57;2.67;;;11.10;99.90;;;;;;5040942;28;20018;-68
2023/02/27 11:07:36;;;;;;;8.88;2.70;;;11.40;99.90;;;;;;5041734;28;20022;-69
2023/02/27 11:10:16;;;;;;;8.63;3.05;;;11.60;99.90;;;;;;5040962;28;20034;-69
2023/02/27 11:13:09;;;;;;;8.85;2.60;;;11.80;99.90;;;;;;5037719;28;20026;-69
2023/02/27 11:15:37;;;;;;;11.05;2.65;;;12.00;99.90;;;;;;5038494;28;20053;-69
2023/02/27 11:18:28;;;;;;;5.38;2.20;;;12.00;99.90;;;;;;5040745;28;20108;-70
2023/02/27 11:21:10;;;;;;;4.95;2.45;;;12.10;99.90;;;;;;5043019;28;20029;-71
2023/02/27 11:23:35;;;;;;;5.70;1.90;;;12.30;99.90;;;;;;5041527;28;20056;-70
2023/02/27 11:26:16;;;;;;;5.25;1.80;;;12.20;99.90;;;;;;5041851;28;20709;-69
2023/02/27 11:28:42;;;;;;;4.13;1.80;;;12.20;99.90;;;;;;5042530;28;20103;-69
2023/02/27 11:31:19;;;;;;;4.22;1.80;;;12.20;99.90;;;;;;5041212;28;20049;-69
2023/02/27 11:33:54;;;;;;;7.15;2.42;;;12.40;99.90;;;;;;5042344;28;20103;-68
2023/02/27 11:36:22;;;;;;;8.00;2.60;;;12.60;99.90;;;;;;5042053;28;20038;-70
2023/02/27 11:38:55;;;;;;;6.45;2.20;;;12.50;99.90;;;;;;5042621;28;20025;-69
2023/02/27 11:41:31;;;;;;;5.65;1.90;;;12.40;99.90;;;;;;5042446;28;20053;-69
2023/02/27 11:43:59;;;;;;;7.00;2.45;;;12.40;99.90;;;;;;5040627;28;20018;-70
2023/02/27 11:46:25;;;;;;;8.00;2.35;;;12.30;99.90;;;;;;5041611;28;20021;-70
2023/02/27 11:49:00;;;;;;;6.20;1.90;;;12.20;99.90;;;;;;5042460;28;20738;-69
2023/02/27 11:51:34;;;;;;;5.40;1.90;;;12.10;99.90;;;;;;5040801;28;20036;-69
2023/02/27 11:54:24;;;;;;;7.13;2.05;;;11.80;99.90;;;;;;5041570;28;20021;-69
2023/02/27 11:56:58;;;;;;;7.32;2.03;;;11.90;99.90;;;;;;5041591;28;20029;-69
2023/02/27 11:59:27;;;;;;;4.95;1.92;;;12.30;99.90;;;;;;5042046;28;20021;-70
2023/02/27 12:02:22;;;;;;;5.65;2.03;;;12.70;99.90;;;;;;5041717;28;20025;-70
2023/02/27 12:04:53;;;;;;;4.47;2.03;;;12.90;99.90;;;;;;5042330;28;20029;-69
2023/02/27 12:07:24;;;;;;;5.15;1.83;;;13.00;99.90;;;;;;5040408;28;20151;-69
2023/02/27 12:09:59;;;;;;;9.60;2.50;;;13.00;99.90;;;;;;5041451;28;20017;-69
2023/02/27 12:12:41;;;;;;;5.45;1.90;;;13.10;99.90;;;;;;5041823;28;20021;-71
2023/02/27 12:15:33;;;;;;;6.57;2.33;;;13.40;99.90;;;;;;5041194;28;20085;-69
2023/02/27 12:18:03;;;;;;;5.80;2.03;;;13.70;99.90;;;;;;5040957;28;20056;-70
2023/02/27 12:21:10;;;;;;;11.90;2.22;;;13.90;99.90;;;;;;5041612;28;20025;-69
2023/02/27 12:23:42;;;;;;;10.40;2.50;;;14.30;99.90;;;;;;5041326;28;20067;-69
2023/02/27 12:26:33;;;;;;;4.68;2.05;;;14.70;99.90;;;;;;5039909;28;20068;-69
2023/02/27 12:29:21;;;;;;;5.72;2.10;;;15.20;99.90;;;;;;5041307;28;20025;-69
2023/02/27 12:31:58;;;;;;;3.88;1.83;;;15.50;99.90;;;;;;5041776;28;20022;-70
2023/02/27 12:34:43;;;;;;;8.00;2.90;;;15.80;99.90;;;;;;5041133;28;20039;-69
2023/02/27 12:37:14;;;;;;;7.53;2.20;;;16.00;99.90;;;;;;5041936;28;20029;-70
2023/02/27 12:39:42;;;;;;;3.70;1.77;;;15.60;99.90;;;;;;5041573;28;20087;-68
2023/02/27 12:42:26;;;;;;;6.53;1.60;;;14.80;99.90;;;;;;5040128;28;20033;-69
2023/02/27 12:45:41;;;;;;;6.22;1.90;;;13.90;99.90;;;;;;5041306;28;20064;-70
2023/02/27 12:48:15;;;;;;;5.40;2.15;;;13.10;99.90;;;;;;5048985;28;20041;-70
2023/02/27 12:50:59;;;;;;;6.13;1.70;;;12.70;99.90;;;;;;5032431;28;20022;-69
2023/02/27 12:53:49;;;;;;;5.18;1.73;;;12.40;99.90;;;;;;5043128;28;20034;-70
2023/02/27 12:56:18;;;;;;;5.13;1.98;;;12.10;99.90;;;;;;5038287;28;20041;-70
2023/02/27 12:58:49;;;;;;;4.22;1.60;;;12.10;99.90;;;;;;5039838;28;20044;-69
2023/02/27 13:01:46;;;;;;;8.10;2.40;;;12.10;99.90;;;;;;5039151;28;20041;-69
2023/02/27 13:04:44;;;;;;;7.97;2.22;;;12.40;99.90;;;;;;5039737;28;20033;-70
2023/02/27 13:07:34;;;;;;;3.78;1.73;;;12.60;99.90;;;;;;5033582;28;20548;-69
2023/02/27 13:10:17;;;;;;;5.25;1.83;;;12.70;99.90;;;;;;5037980;28;20026;-69
2023/02/27 13:12:52;;;;;;;6.07;1.75;;;12.60;99.90;;;;;;5039515;28;20034;-70